createdAt,value
2022-11-15T00:01:10.542Z,1.08
2022-11-15T00:03:38.159Z,1.10
2022-11-15T00:06:06.110Z,1.15
2022-11-15T00:08:34.340Z,0.52
2022-11-15T00:11:02.667Z,0.40
2022-11-15T00:13:31.094Z,1.20
2022-11-15T00:16:00.289Z,0.50
2022-11-15T00:18:28.337Z,1.15
2022-11-15T00:20:55.785Z,0.75
2022-11-15T00:23:23.937Z,1.13
2022-11-15T00:26:00.692Z,0.63
2022-11-15T00:28:28.449Z,0.47
2022-11-15T00:30:56.094Z,1.25
2022-11-15T00:33:23.761Z,0.95
2022-11-15T00:35:51.447Z,0.88
2022-11-15T00:38:18.958Z,0.95
2022-11-15T00:40:49.289Z,0.85
2022-11-15T00:43:16.968Z,0.65
2022-11-15T00:45:44.583Z,0.70
2022-11-15T00:48:12.442Z,1.30
2022-11-15T00:50:40.123Z,1.52
2022-11-15T00:53:07.717Z,1.05
2022-11-15T00:55:35.248Z,1.60
2022-11-15T00:58:02.817Z,0.90
2022-11-15T01:00:30.533Z,0.85
2022-11-15T01:02:58.344Z,1.05
2022-11-15T01:05:26.078Z,0.82
2022-11-15T01:07:57.492Z,0.90
2022-11-15T01:10:25.514Z,1.00
2022-11-15T01:12:53.194Z,1.23
2022-11-15T01:15:20.778Z,1.85
2022-11-15T01:17:48.630Z,1.92
2022-11-15T01:20:16.213Z,1.27
2022-11-15T01:22:43.778Z,1.75
2022-11-15T01:25:11.255Z,0.82
2022-11-15T01:27:38.838Z,0.80
2022-11-15T01:30:06.705Z,1.10
2022-11-15T01:32:34.210Z,0.70
2022-11-15T01:35:01.784Z,1.30
2022-11-15T01:37:29.406Z,1.15
2022-11-15T01:39:57.014Z,0.90
2022-11-15T01:42:24.644Z,1.85
2022-11-15T01:44:53.829Z,1.65
2022-11-15T01:47:23.338Z,1.55
2022-11-15T01:49:56.334Z,0.57
2022-11-15T01:52:26.422Z,0.80
2022-11-15T01:55:09.418Z,0.88
2022-11-15T01:57:37.234Z,0.85
2022-11-15T02:00:09.374Z,0.65
2022-11-15T02:02:38.265Z,0.80
2022-11-15T02:05:05.993Z,0.70
2022-11-15T02:07:42.663Z,0.75
2022-11-15T02:10:23.119Z,0.65
2022-11-15T02:12:51.374Z,0.85
2022-11-15T02:15:19.270Z,0.60
2022-11-15T02:17:55.788Z,0.70
2022-11-15T02:20:42.688Z,0.77
2022-11-15T02:23:19.593Z,0.70
2022-11-15T02:25:50.203Z,1.02
2022-11-15T02:28:19.303Z,0.80
2022-11-15T02:30:49.125Z,0.70
2022-11-15T02:33:34.638Z,0.82
2022-11-15T02:36:03.665Z,0.60
2022-11-15T02:38:31.168Z,1.00
2022-11-15T02:41:13.054Z,0.57
2022-11-15T02:43:58.543Z,0.47
2022-11-15T02:46:50.809Z,1.15
2022-11-15T02:49:18.400Z,0.40
2022-11-15T02:51:47.036Z,1.00
2022-11-15T02:54:22.814Z,0.90
2022-11-15T02:56:53.078Z,0.75
2022-11-15T02:59:21.599Z,0.90
2022-11-15T03:02:12.233Z,0.70
2022-11-15T03:04:45.905Z,0.60
2022-11-15T03:07:17.434Z,0.65
2022-11-15T03:09:52.900Z,1.30
2022-11-15T03:12:43.084Z,1.20
2022-11-15T03:15:24.099Z,0.50
2022-11-15T03:18:02.704Z,0.75
2022-11-15T03:20:30.975Z,0.95
2022-11-15T03:23:06.823Z,1.02
2022-11-15T03:25:36.913Z,0.77
2022-11-15T03:28:07.164Z,1.27
2022-11-15T03:30:36.453Z,1.23
2022-11-15T03:33:04.766Z,1.30
2022-11-15T03:35:36.133Z,1.25
2022-11-15T03:38:07.085Z,1.00
2022-11-15T03:40:42.440Z,1.13
2022-11-15T03:43:27.566Z,0.60
2022-11-15T03:46:01.699Z,1.02
2022-11-15T03:48:35.582Z,1.10
2022-11-15T03:51:03.849Z,1.48
2022-11-15T03:53:32.688Z,1.00
2022-11-15T03:56:00.564Z,0.93
2022-11-15T03:58:28.209Z,1.05
2022-11-15T04:00:55.827Z,1.77
2022-11-15T04:03:25.115Z,1.65
2022-11-15T04:05:52.841Z,1.00
2022-11-15T04:08:20.592Z,1.30
2022-11-15T04:10:51.863Z,1.27
2022-11-15T04:13:19.352Z,0.88
2022-11-15T04:15:46.932Z,1.05
2022-11-15T04:18:14.444Z,1.63
2022-11-15T04:21:00.161Z,1.15
2022-11-15T04:23:45.894Z,1.42
2022-11-15T04:26:14.691Z,1.58
2022-11-15T04:29:02.088Z,1.10
2022-11-15T04:31:30.112Z,1.88
2022-11-15T04:33:57.953Z,2.03
2022-11-15T04:36:43.943Z,1.38
2022-11-15T04:39:11.507Z,2.05
2022-11-15T04:41:39.014Z,1.60
2022-11-15T04:44:06.592Z,1.40
2022-11-15T04:46:34.077Z,2.88
2022-11-15T04:49:01.596Z,1.83
2022-11-15T04:51:29.161Z,1.52
2022-11-15T04:53:56.699Z,1.25
2022-11-15T04:56:24.226Z,1.08
2022-11-15T04:58:51.833Z,1.02
2022-11-15T05:01:19.499Z,2.33
2022-11-15T05:04:05.569Z,1.30
2022-11-15T05:06:33.840Z,1.30
2022-11-15T05:09:01.377Z,1.42
2022-11-15T05:11:29.052Z,1.05
2022-11-15T05:13:56.721Z,1.30
2022-11-15T05:16:24.313Z,1.15
2022-11-15T05:18:55.550Z,1.60
2022-11-15T05:21:23.197Z,1.30
2022-11-15T05:23:50.886Z,1.27
2022-11-15T05:26:20.277Z,0.95
2022-11-15T05:28:47.961Z,0.88
2022-11-15T05:31:16.970Z,0.80
2022-11-15T05:33:46.692Z,1.77
2022-11-15T05:36:20.606Z,1.50
2022-11-15T05:38:49.021Z,1.10
2022-11-15T05:41:18.152Z,1.13
2022-11-15T05:43:45.884Z,0.90
2022-11-15T05:46:14.709Z,0.90
2022-11-15T05:48:44.611Z,0.93
2022-11-15T05:51:14.142Z,0.88
2022-11-15T05:53:50.908Z,0.73
2022-11-15T05:56:30.772Z,1.10
2022-11-15T05:58:59.967Z,0.75
2022-11-15T06:01:28.388Z,0.70
2022-11-15T06:03:55.909Z,0.57
2022-11-15T06:06:23.566Z,0.80
2022-11-15T06:08:51.104Z,0.57
2022-11-15T06:11:18.602Z,1.13
2022-11-15T06:13:46.261Z,0.77
2022-11-15T06:16:14.117Z,0.73
2022-11-15T06:18:41.650Z,0.60
2022-11-15T06:21:09.204Z,0.95
2022-11-15T06:23:37.207Z,1.27
2022-11-15T06:26:04.965Z,1.15
2022-11-15T06:28:33.181Z,0.70
2022-11-15T06:31:04.926Z,0.90
2022-11-15T06:33:32.725Z,1.27
2022-11-15T06:36:04.565Z,0.57
2022-11-15T06:38:32.277Z,0.90
2022-11-15T06:41:03.773Z,0.70
2022-11-15T06:43:31.699Z,1.13
2022-11-15T06:46:03.217Z,1.00
2022-11-15T06:48:31.373Z,0.60
2022-11-15T06:51:00.202Z,0.80
2022-11-15T06:53:28.571Z,0.90
2022-11-15T06:55:59.975Z,0.90
2022-11-15T06:58:27.561Z,1.02
2022-11-15T07:00:55.845Z,0.60
2022-11-15T07:03:23.470Z,0.68
2022-11-15T07:06:01.426Z,0.45
2022-11-15T07:08:33.204Z,1.00
2022-11-15T07:11:02.084Z,1.05
2022-11-15T07:13:30.554Z,1.55
2022-11-15T07:15:58.433Z,0.60
2022-11-15T07:18:25.950Z,0.85
2022-11-15T07:20:53.484Z,0.60
2022-11-15T07:23:21.073Z,1.10
2022-11-15T07:25:48.560Z,1.10
2022-11-15T07:28:16.328Z,0.80
2022-11-15T07:30:45.368Z,0.77
2022-11-15T07:33:13.127Z,0.90
2022-11-15T07:35:40.697Z,0.90
2022-11-15T07:38:08.318Z,0.80
2022-11-15T07:40:35.830Z,1.52
2022-11-15T07:43:07.387Z,1.05
2022-11-15T07:45:37.942Z,1.77
2022-11-15T07:48:05.562Z,1.00
2022-11-15T07:50:33.088Z,1.05
2022-11-15T07:53:01.449Z,0.77
2022-11-15T07:55:32.215Z,1.08
2022-11-15T07:58:04.142Z,0.88
2022-11-15T08:00:31.874Z,0.80
2022-11-15T08:03:09.831Z,0.98
2022-11-15T08:05:42.145Z,1.02
2022-11-15T08:08:10.662Z,1.23
2022-11-15T08:10:40.820Z,0.88
2022-11-15T08:13:10.117Z,0.65
2022-11-15T08:15:38.104Z,0.95
2022-11-15T08:18:11.071Z,1.15
2022-11-15T08:20:38.589Z,1.23
2022-11-15T08:23:06.705Z,0.63
2022-11-15T08:25:35.158Z,1.27
2022-11-15T08:28:04.398Z,0.90
2022-11-15T08:30:32.488Z,0.70
2022-11-15T08:33:00.567Z,1.02
2022-11-15T08:35:29.408Z,1.20
2022-11-15T08:37:57.204Z,0.88
2022-11-15T08:40:25.526Z,0.98
2022-11-15T08:42:53.143Z,0.95
2022-11-15T08:45:20.988Z,0.90
2022-11-15T08:47:53.813Z,1.73
2022-11-15T08:52:52.161Z,0.80
2022-11-15T08:55:22.122Z,1.08
2022-11-15T08:57:51.915Z,0.90
2022-11-15T09:00:21.471Z,0.90
2022-11-15T09:02:48.943Z,1.00
2022-11-15T09:05:17.312Z,1.27
2022-11-15T09:07:45.143Z,1.13
2022-11-15T09:10:12.643Z,0.47
2022-11-15T09:12:40.212Z,1.00
2022-11-15T09:15:08.106Z,0.80
2022-11-15T09:17:35.612Z,0.90
2022-11-15T09:20:03.158Z,0.57
2022-11-15T09:22:30.677Z,0.73
2022-11-15T09:24:58.778Z,1.10
2022-11-15T09:27:35.068Z,1.40
2022-11-15T09:30:02.595Z,1.15
2022-11-15T09:32:38.986Z,0.70
2022-11-15T09:35:07.038Z,1.02
2022-11-15T09:37:34.819Z,0.40
2022-11-15T09:40:02.509Z,0.70
2022-11-15T09:42:35.928Z,0.77
2022-11-15T09:45:11.645Z,0.65
2022-11-15T09:47:51.803Z,0.77
2022-11-15T09:50:24.648Z,0.50
2022-11-15T09:52:52.227Z,0.77
2022-11-15T09:55:22.987Z,0.70
2022-11-15T09:57:58.394Z,0.70
2022-11-15T10:00:50.761Z,0.90
2022-11-15T10:03:22.860Z,0.65
2022-11-15T10:05:51.618Z,1.05
2022-11-15T10:08:25.295Z,0.57
2022-11-15T10:11:35.545Z,0.63
2022-11-15T10:13:53.477Z,0.82
2022-11-15T10:16:31.978Z,0.63
2022-11-15T10:19:05.536Z,0.45
2022-11-15T10:21:50.972Z,1.38
2022-11-15T10:24:21.222Z,0.70
2022-11-15T10:26:52.060Z,1.13
2022-11-15T10:29:26.700Z,0.85
2022-11-15T10:31:54.833Z,0.38
2022-11-15T10:34:23.627Z,0.50
2022-11-15T10:36:58.192Z,0.63
2022-11-15T10:39:26.180Z,0.75
2022-11-15T10:41:53.878Z,0.82
2022-11-15T10:44:22.988Z,0.50
2022-11-15T10:47:10.735Z,0.55
2022-11-15T10:49:38.458Z,0.52
2022-11-15T10:52:21.931Z,1.00
2022-11-15T10:55:09.607Z,0.90
2022-11-15T10:57:40.478Z,0.70
2022-11-15T11:00:23.372Z,0.60
2022-11-15T11:02:56.967Z,0.30
2022-11-15T11:05:29.029Z,0.50
2022-11-15T11:08:02.895Z,0.73
2022-11-15T11:10:50.931Z,0.70
2022-11-15T11:13:24.861Z,0.52
2022-11-15T11:16:11.261Z,0.50
2022-11-15T11:18:49.370Z,0.77
2022-11-15T11:21:22.629Z,0.50
2022-11-15T11:24:18.199Z,0.88
2022-11-15T11:26:57.281Z,0.50
2022-11-15T11:29:29.480Z,0.47
2022-11-15T11:32:19.890Z,0.40
2022-11-15T11:34:49.098Z,0.47
2022-11-15T11:37:26.595Z,0.85
2022-11-15T11:40:10.894Z,0.50
2022-11-15T11:42:45.760Z,0.30
2022-11-15T11:45:22.452Z,0.50
2022-11-15T11:47:53.594Z,0.80
2022-11-15T11:50:22.852Z,0.40
2022-11-15T11:52:59.532Z,0.70
2022-11-15T11:55:35.027Z,0.60
2022-11-15T11:58:18.109Z,0.68
2022-11-15T12:00:49.100Z,0.73
2022-11-15T12:03:26.335Z,0.60
2022-11-15T12:05:58.281Z,0.75
2022-11-15T12:08:32.125Z,0.75
2022-11-15T12:11:10.613Z,0.50
2022-11-15T12:13:39.520Z,0.50
2022-11-15T12:16:19.175Z,0.70
2022-11-15T12:18:49.848Z,1.00
2022-11-15T12:21:29.253Z,1.30
2022-11-15T12:24:05.962Z,0.50
2022-11-15T12:26:37.264Z,0.70
2022-11-15T12:29:18.129Z,0.70
2022-11-15T12:31:47.782Z,0.52
2022-11-15T12:34:18.305Z,1.00
2022-11-15T12:36:46.127Z,0.80
2022-11-15T12:39:14.999Z,0.77
2022-11-15T12:41:43.570Z,0.63
2022-11-15T12:44:25.080Z,0.80
2022-11-15T12:46:52.616Z,0.85
2022-11-15T12:49:23.875Z,1.00
2022-11-15T12:51:52.606Z,0.88
2022-11-15T12:54:26.400Z,0.55
2022-11-15T12:57:08.887Z,0.80
2022-11-15T13:00:05.947Z,0.60
2022-11-15T13:02:33.493Z,1.08
2022-11-15T13:05:23.801Z,1.00
2022-11-15T13:07:51.510Z,1.27
2022-11-15T13:10:19.425Z,0.55
2022-11-15T13:12:48.395Z,1.10
2022-11-15T13:15:18.687Z,2.13
2022-11-15T13:17:47.275Z,0.50
2022-11-15T13:20:20.683Z,1.35
2022-11-15T13:22:53.233Z,0.70
2022-11-15T13:25:39.395Z,0.90
2022-11-15T13:28:16.107Z,0.65
2022-11-15T13:30:52.189Z,0.80
2022-11-15T13:33:22.085Z,1.33
2022-11-15T13:35:52.131Z,1.02
2022-11-15T13:38:39.851Z,0.80
2022-11-15T13:41:18.780Z,0.93
2022-11-15T13:43:46.341Z,1.42
2022-11-15T13:46:34.411Z,0.85
2022-11-15T13:49:06.166Z,1.38
2022-11-15T13:51:53.582Z,1.10
2022-11-15T13:54:22.995Z,0.93
2022-11-15T13:56:59.113Z,1.38
2022-11-15T13:59:35.301Z,1.10
2022-11-15T14:02:14.324Z,0.70
2022-11-15T14:04:48.343Z,0.93
2022-11-15T14:07:21.428Z,0.90
2022-11-15T14:09:48.976Z,0.80
2022-11-15T14:12:33.249Z,1.58
2022-11-15T14:15:01.811Z,1.17
2022-11-15T14:17:32.304Z,0.98
2022-11-15T14:20:00.210Z,0.80
2022-11-15T14:22:29.768Z,1.23
2022-11-15T14:25:15.926Z,1.40
2022-11-15T14:27:44.605Z,1.40
2022-11-15T14:30:18.559Z,1.48
2022-11-15T14:32:50.493Z,1.35
2022-11-15T14:35:19.931Z,1.27
2022-11-15T14:37:47.964Z,1.70
2022-11-15T14:40:17.345Z,1.88
2022-11-15T14:42:46.200Z,1.52
2022-11-15T14:45:19.043Z,1.75
2022-11-15T14:47:47.270Z,1.50
2022-11-15T14:50:15.182Z,1.65
2022-11-15T14:52:42.827Z,1.20
2022-11-15T14:55:18.538Z,1.10
2022-11-15T14:57:47.025Z,1.75
2022-11-15T15:00:15.255Z,2.88
2022-11-15T15:02:44.169Z,1.83
2022-11-15T15:05:18.695Z,1.00
2022-11-15T15:07:47.409Z,2.38
2022-11-15T15:13:03.887Z,0.88
2022-11-15T15:15:36.424Z,1.33
2022-11-15T15:18:06.457Z,1.95
2022-11-15T15:20:34.282Z,1.02
2022-11-15T15:23:01.871Z,1.75
2022-11-15T15:25:30.549Z,2.30
2022-11-15T15:27:58.279Z,1.58
2022-11-15T15:30:26.406Z,1.20
2022-11-15T15:32:53.965Z,1.55
2022-11-15T15:35:22.335Z,0.90
2022-11-15T15:37:50.329Z,1.52
2022-11-15T15:40:19.246Z,1.85
2022-11-15T15:42:46.721Z,1.77
2022-11-15T15:45:14.312Z,1.42
2022-11-15T15:47:41.772Z,1.27
2022-11-15T15:50:28.871Z,1.00
2022-11-15T15:52:57.877Z,1.02
2022-11-15T15:55:25.567Z,1.63
2022-11-15T15:57:53.310Z,1.67
2022-11-15T16:00:21.503Z,1.05
2022-11-15T16:02:49.060Z,1.70
2022-11-15T16:05:16.917Z,1.90
2022-11-15T16:07:48.040Z,1.33
2022-11-15T16:10:15.470Z,1.90
2022-11-15T16:12:42.925Z,1.55
2022-11-15T16:15:10.947Z,1.52
2022-11-15T16:17:43.758Z,1.92
2022-11-15T16:20:29.898Z,1.42
2022-11-15T16:22:57.454Z,1.80
2022-11-15T16:25:25.106Z,1.52
2022-11-15T16:27:52.556Z,1.58
2022-11-15T16:30:21.908Z,1.63
2022-11-15T16:32:49.566Z,1.27
2022-11-15T16:35:17.922Z,1.20
2022-11-15T16:37:47.708Z,1.45
2022-11-15T16:40:31.933Z,2.17
2022-11-15T16:43:00.504Z,1.98
2022-11-15T16:45:29.825Z,1.80
2022-11-15T16:47:57.497Z,1.48
2022-11-15T16:50:26.927Z,1.85
2022-11-15T16:52:55.996Z,1.35
2022-11-15T16:55:24.121Z,1.10
2022-11-15T16:57:51.558Z,1.40
2022-11-15T17:00:19.935Z,1.65
2022-11-15T17:02:48.331Z,2.15
2022-11-15T17:05:20.025Z,2.08
2022-11-15T17:07:51.201Z,1.30
2022-11-15T17:10:21.700Z,1.85
2022-11-15T17:12:49.741Z,2.75
2022-11-15T17:15:17.396Z,1.20
2022-11-15T17:17:45.011Z,3.28
2022-11-15T17:20:16.491Z,2.47
2022-11-15T17:22:44.128Z,1.65
2022-11-15T17:25:11.589Z,2.05
2022-11-15T17:27:38.963Z,2.65
2022-11-15T17:30:07.607Z,1.88
2022-11-15T17:32:38.114Z,2.05
2022-11-15T17:35:13.752Z,2.33
2022-11-15T17:37:42.926Z,1.45
2022-11-15T17:40:11.056Z,2.42
2022-11-15T17:42:41.061Z,2.15
2022-11-15T17:45:10.348Z,2.42
2022-11-15T17:47:38.561Z,2.05
2022-11-15T17:50:07.225Z,1.33
2022-11-15T17:52:34.824Z,2.63
2022-11-15T17:55:02.414Z,1.85
2022-11-15T17:57:29.892Z,0.75
2022-11-15T17:59:57.417Z,2.05
2022-11-15T18:02:24.966Z,1.77
2022-11-15T18:04:52.854Z,1.58
2022-11-15T18:07:20.363Z,2.15
2022-11-15T18:09:48.303Z,2.22
2022-11-15T18:12:15.840Z,2.05
2022-11-15T18:14:43.359Z,1.40
2022-11-15T18:17:11.398Z,1.33
2022-11-15T18:19:39.366Z,1.15
2022-11-15T18:22:10.477Z,2.17
2022-11-15T18:24:43.530Z,1.75
2022-11-15T18:27:11.251Z,2.25
2022-11-15T18:29:38.867Z,1.42
2022-11-15T18:32:12.258Z,1.45
2022-11-15T18:34:39.855Z,1.40
2022-11-15T18:37:07.556Z,1.35
2022-11-15T18:39:35.150Z,1.60
2022-11-15T18:42:02.885Z,1.30
2022-11-15T18:44:33.540Z,1.13
2022-11-15T18:47:01.421Z,1.13
2022-11-15T18:49:30.429Z,2.50
2022-11-15T18:51:57.999Z,1.17
2022-11-15T18:54:31.106Z,1.92
2022-11-15T18:56:59.379Z,1.65
2022-11-15T18:59:28.610Z,1.65
2022-11-15T19:01:56.781Z,1.73
2022-11-15T19:04:24.415Z,2.22
2022-11-15T19:06:52.384Z,1.75
2022-11-15T19:09:20.248Z,1.90
2022-11-15T19:11:48.748Z,1.63
2022-11-15T19:14:18.381Z,1.92
2022-11-15T19:16:50.675Z,2.28
2022-11-15T19:19:19.545Z,2.53
2022-11-15T19:21:47.294Z,1.50
2022-11-15T19:24:16.772Z,1.98
2022-11-15T19:26:45.719Z,2.20
2022-11-15T19:29:14.475Z,2.20
2022-11-15T19:31:42.683Z,2.25
2022-11-15T19:34:10.314Z,1.73
2022-11-15T19:36:39.034Z,2.30
2022-11-15T19:39:10.425Z,2.92
2022-11-15T19:41:39.149Z,1.90
2022-11-15T19:44:07.253Z,1.88
2022-11-15T19:46:35.782Z,2.03
2022-11-15T19:49:03.653Z,2.28
2022-11-15T19:51:31.554Z,1.63
2022-11-15T19:54:00.515Z,1.58
2022-11-15T19:56:28.003Z,2.25
2022-11-15T19:58:56.145Z,1.95
2022-11-15T20:01:28.026Z,1.67
2022-11-15T20:03:57.873Z,1.45
2022-11-15T20:06:26.785Z,1.52
2022-11-15T20:08:54.383Z,1.38
2022-11-15T20:11:21.988Z,1.40
2022-11-15T20:13:49.585Z,2.20
2022-11-15T20:16:19.144Z,1.67
2022-11-15T20:18:47.006Z,2.17
2022-11-15T20:21:15.284Z,1.27
2022-11-15T20:23:43.042Z,1.60
2022-11-15T20:26:12.168Z,1.63
2022-11-15T20:28:40.227Z,1.60
2022-11-15T20:31:10.411Z,2.28
2022-11-15T20:33:37.814Z,1.30
2022-11-15T20:36:06.178Z,1.90
2022-11-15T20:38:35.144Z,1.65
2022-11-15T20:41:03.045Z,1.05
2022-11-15T20:43:30.594Z,1.33
2022-11-15T20:45:58.286Z,1.60
2022-11-15T20:48:27.888Z,1.40
2022-11-15T20:51:04.648Z,1.48
2022-11-15T20:53:32.329Z,1.70
2022-11-15T20:56:04.111Z,1.88
2022-11-15T20:58:31.850Z,1.58
2022-11-15T21:01:00.062Z,1.60
2022-11-15T21:03:27.758Z,1.77
2022-11-15T21:05:55.406Z,1.90
2022-11-15T21:08:22.980Z,1.73
2022-11-15T21:11:14.267Z,1.77
2022-11-15T21:13:42.149Z,2.30
2022-11-15T21:16:09.696Z,2.10
2022-11-15T21:18:37.269Z,1.67
2022-11-15T21:21:08.120Z,1.40
2022-11-15T21:23:35.661Z,1.85
2022-11-15T21:26:03.187Z,2.55
2022-11-15T21:28:30.983Z,1.15
2022-11-15T21:31:00.176Z,2.45
2022-11-15T21:33:31.644Z,1.58
2022-11-15T21:35:59.273Z,1.55
2022-11-15T21:38:26.773Z,1.23
2022-11-15T21:40:54.933Z,2.55
2022-11-15T21:43:22.439Z,1.42
2022-11-15T21:46:01.037Z,2.10
2022-11-15T21:48:29.665Z,1.65
2022-11-15T21:50:58.112Z,1.52
2022-11-15T21:53:26.549Z,1.48
2022-11-15T21:55:54.107Z,2.58
2022-11-15T21:58:22.213Z,2.92
2022-11-15T22:01:08.311Z,3.08
2022-11-15T22:03:36.473Z,1.98
2022-11-15T22:06:04.103Z,1.15
2022-11-15T22:08:32.314Z,2.95
2022-11-15T22:11:00.284Z,1.58
2022-11-15T22:13:28.203Z,1.85
2022-11-15T22:15:55.845Z,1.77
2022-11-15T22:18:26.644Z,2.22
2022-11-15T22:21:01.832Z,2.28
2022-11-15T22:23:30.412Z,1.83
2022-11-15T22:25:58.412Z,1.63
2022-11-15T22:28:26.536Z,1.95
2022-11-15T22:30:55.077Z,2.72
2022-11-15T22:33:23.521Z,2.00
2022-11-15T22:35:51.396Z,2.70
2022-11-15T22:38:18.949Z,2.78
2022-11-15T22:40:47.845Z,3.45
2022-11-15T22:43:16.589Z,3.60
2022-11-15T22:45:50.202Z,2.85
2022-11-15T22:48:18.095Z,2.95
2022-11-15T22:50:45.941Z,3.08
2022-11-15T22:53:15.874Z,3.15
2022-11-15T22:55:43.482Z,4.60
2022-11-15T22:58:11.237Z,3.05
2022-11-15T23:00:38.777Z,3.15
2022-11-15T23:03:06.445Z,2.83
2022-11-15T23:05:34.631Z,3.83
2022-11-15T23:08:02.168Z,3.45
2022-11-15T23:10:48.022Z,3.75
2022-11-15T23:13:18.518Z,3.65
2022-11-15T23:16:05.114Z,3.97
2022-11-15T23:18:37.057Z,2.55
2022-11-15T23:21:13.056Z,3.35
2022-11-15T23:23:41.251Z,3.88
2022-11-15T23:26:09.487Z,3.30
2022-11-15T23:28:38.348Z,4.38
2022-11-15T23:31:25.026Z,3.83
2022-11-15T23:33:58.805Z,4.22
2022-11-15T23:36:27.994Z,2.70
2022-11-15T23:38:55.850Z,3.03
2022-11-15T23:41:24.546Z,3.30
2022-11-15T23:43:52.344Z,2.75
2022-11-15T23:46:20.688Z,3.42
2022-11-15T23:48:48.965Z,3.45
2022-11-15T23:51:16.625Z,5.10
2022-11-15T23:53:44.638Z,3.85
2022-11-15T23:56:13.488Z,3.72
2022-11-15T23:58:41.828Z,3.78
